Hlavní strana
METAR-TAF:

METAR-TAF

Letiště :

Andrews-Murphy Airport

Andrews, Severní Karolína, Spojené státy americké

zeměpisná šířka: 35-11-42N, zeměpisná délka: 083-51-49W, výška: 517 m

Aktuální stav počasí

Zpráva byla vytvořena před 20 minutami, v 13:40 UTC
Bezvětří
Teplota 4°C
Vlhkost vzduchu 75%
Tlak 1025 hPa
Viditelnost: 16.1 km
Jasno

METAR: KRHP 181340Z AUTO 00000KT 10SM CLR 04/00 A3026 RMK AO2 T00380002

Čas: 10:00 (14:00 UTC)


TAF: chybějící

Stav a předpovědi počasí z více než 4 000 letišť (zprávy METAR a TAF).

Červené a žluté tečky na mapě představují dostupné meteorologické stanice.

Když kurzor umístíte na tečku, zobrazí se název stanice.

Pak kliknutím zobrazíte stav a předpověď počasí.

Chcete-li změnit mapu, kliknutím na zelené tlačítko se znaménkem +mapu přiblížíte, kliknutím na zelené tlačítko se znaménkem – mapu oddálíte a kliknutím na zelené šipky přejdete na sousední mapy.


METAR-TAF: